Observations for BRISTOL LULSGATE, United Kingdom (EGGD)

EGGD 180520Z AUTO 25013KT 9999 BKN007 OVC018 13/13 Q1018
EGGD 180450Z AUTO 26014KT 9999 BKN008 OVC015 13/13 Q1018
EGGD 180420Z AUTO 25013KT 9000 BKN006 OVC010 13/13 Q1017
EGGD 180350Z AUTO 26014KT 9999 -RA BKN005 OVC012 13/13 Q1017
EGGD 180320Z AUTO 25012KT 9999 BKN005 OVC009 13/13 Q1017
EGGD 180250Z AUTO 25012KT 9999 BKN004 OVC018 13/13 Q1017
EGGD 180220Z AUTO 25011KT 9999 OVC002 13/13 Q1017   
EGGD 180150Z AUTO 26015KT 8000 -RA OVC002 13/13 Q1017 RERA REDZ 
EGGD 180120Z AUTO 25011KT 4100 RADZ BKN003 BKN010 BKN015 13/13 Q1017
EGGD 180050Z AUTO 26014KT 9999 BKN004 OVC015 13/13 Q1017
EGGD 180020Z AUTO 25009KT 9999 FEW003 OVC006 13/13 Q1017
EGGD 172350Z AUTO 26017KT 9999 OVC002 13/13 Q1017   
EGGD 172320Z AUTO 26016KT 9999 OVC002 13/13 Q1017   
EGGD 172250Z AUTO 26012KT 9000 BKN002 OVC007 14/14 Q1017 RERA REDZ  
EGGD 172220Z AUTO 26016KT 3900 -DZ OVC002 14/14 Q1017 REDZ  
EGGD 172150Z AUTO 26013KT 9999 OVC001 14/14 Q1017   
EGGD 172120Z AUTO 25013KT 3000 BR BKN001 OVC013 15/15 Q1016 REDZ
EGGD 172050Z 26012KT 3000 -RA DZ FEW001 BKN002 14/14 Q1016  
EGGD 172020Z 27013KT 3000 -DZ BR FEW002 BKN004 14/14 Q1016  
EGGD 171950Z 26015KT 2000 -DZ BR FEW001 BKN002 15/15 Q1016  
EGGD 171920Z 26011KT 0600 R27/1300 -DZ FG FEW000 BKN001 15/15 Q1015 
EGGD 171850Z 26013KT 4000 1600W -DZ BR BKN002 15/15 Q1016   
EGGD 171820Z AUTO 25010KT 3100 -DZ OVC001 15/15 Q1016   
EGGD 171750Z 24008KT 4000 0900W R27/P1500 -DZ BR PRFG OVC001 15/15 Q1016
EGGD 171720Z 24007KT 5000 2000W -DZ BR FEW002 BKN004 15/15 Q1016
EGGD 171650Z AUTO 21007KT 9999 OVC006 15/15 Q1015   
EGGD 171620Z AUTO 21007KT 9999 OVC007 15/15 Q1015   
EGGD 171550Z AUTO 21007KT 9999 OVC006 15/15 Q1015   
EGGD 171520Z AUTO 20010KT 9999 OVC008 16/15 Q1015   
EGGD 171450Z AUTO 21011KT 9999 BKN011 OVC019 16/15 Q1015
EGGD 171420Z AUTO 19010KT 160V230 9999 BKN010 OVC014 16/14 Q1015
EGGD 171350Z AUTO 18011KT 9999 OVC011 15/14 Q1015   
EGGD 171320Z AUTO 18009KT 9999 OVC013 15/14 Q1015   
EGGD 171250Z AUTO 17009KT 9999 OVC013 15/13 Q1015   
EGGD 171220Z AUTO 19010KT 9999 BKN013 OVC026 15/13 Q1015
EGGD 171150Z AUTO 18011KT 9999 BKN014 BKN019 OVC026 15/13 Q1016 
EGGD 171120Z AUTO 20011KT 9999 BKN016 BKN023 15/12 Q1016
EGGD 171050Z AUTO 21011KT 9999 BKN018 BKN024 OVC032 15/12 Q1016 
EGGD 171020Z AUTO 21013KT 9999 SCT016 SCT023 BKN038 15/12 Q1016 
EGGD 170950Z AUTO 21011KT 9999 FEW017 BKN039 OVC049 15/12 Q1016 
EGGD 170920Z 21009KT 170V240 9999 SCT013 BKN031 14/13 Q1016 
EGGD 170850Z AUTO 20008KT 9999 SCT013 BKN031 13/13 Q1016
EGGD 170820Z AUTO 21007KT 9999 FEW023 SCT028 BKN033 13/13 Q1016 
EGGD 170750Z AUTO 22007KT 9999 SCT021 BKN029 BKN033 12/12 Q1016 
EGGD 170720Z AUTO 23009KT 9999 SCT015 BKN022 BKN032 12/12 Q1016 
EGGD 170650Z AUTO 22008KT 9999 SCT012 BKN021 OVC036 12/12 Q1016 
EGGD 170620Z AUTO 22008KT 9999 BKN016 BKN025 BKN035 12/12 Q1016 
EGGD 170550Z AUTO 22006KT 9999 BKN013 BKN032 12/12 Q1016
EGGD 170520Z AUTO 24007KT 9999 SCT016 BKN039 12/12 Q1016
EGGD 170450Z AUTO 23008KT 9999 -RA SCT013 BKN020 BKN029 12/12 Q1015